Time;durP1;ratioP1;P1;durP2;ratioP2;P2;SDS_P1;SDS_P2;PMS_P1;PMS_P2;Temp;Humidity;BMP_temperature;BMP_pressure;BME280_temperature;BME280_humidity;BME280_pressure;Samples;Min_cycle;Max_cycle;Signal;HPM_P1;HPM_P2
2022/08/08 00:02:21;;;;;;;2.33;1.70;;;;;;;14.58;64.16;100027.03;8464078;27;20054;-84
2022/08/08 00:06:41;;;;;;;3.40;1.90;;;;;;;14.38;65.13;100014.75;8346882;28;20612;-84
2022/08/08 00:10:51;;;;;;;3.42;2.00;;;;;;;14.25;65.56;100012.91;8356259;28;20040;-84
2022/08/08 00:15:12;;;;;;;3.13;1.80;;;;;;;14.11;66.72;100008.66;8348646;28;20060;-85
2022/08/08 00:19:28;;;;;;;4.80;1.80;;;;;;;14.06;66.82;100009.59;8343342;28;20048;-85
2022/08/08 00:24:01;;;;;;;3.97;1.98;;;;;;;13.98;67.18;100001.38;8333721;28;20061;-83
2022/08/08 00:28:05;;;;;;;4.15;1.63;;;;;;;13.92;67.30;100004.22;8265278;28;20310;-84
2022/08/08 00:32:14;;;;;;;2.90;2.00;;;;;;;13.94;67.36;100007.44;8268307;28;20054;-85
2022/08/08 00:36:24;;;;;;;4.53;2.22;;;;;;;13.89;67.58;100010.28;8254104;28;20050;-85
2022/08/08 00:40:28;;;;;;;3.65;1.70;;;;;;;13.86;67.90;100010.88;8230294;28;20050;-84
2022/08/08 00:44:29;;;;;;;3.95;1.67;;;;;;;13.82;68.17;100020.75;8391890;28;20052;-83
2022/08/08 00:49:05;;;;;;;2.28;1.80;;;;;;;13.76;68.61;100016.56;8392686;28;20524;-83
2022/08/08 00:53:46;;;;;;;5.18;1.70;;;;;;;13.73;68.90;100011.75;8290999;28;20541;-84
2022/08/08 00:58:19;;;;;;;2.03;1.33;;;;;;;13.73;68.56;100011.75;8276355;28;20580;-84
2022/08/08 01:02:50;;;;;;;2.45;1.48;;;;;;;13.65;69.15;100015.19;8279270;28;20073;-84
2022/08/08 01:07:33;;;;;;;4.47;2.08;;;;;;;13.54;69.76;100019.22;8311608;28;20041;-85
2022/08/08 01:11:39;;;;;;;3.80;1.77;;;;;;;13.44;69.74;100024.88;8318336;28;20346;-84
2022/08/08 01:15:55;;;;;;;2.40;1.70;;;;;;;13.32;70.31;100021.91;8325237;28;20516;-85
2022/08/08 01:20:19;;;;;;;3.83;2.10;;;;;;;13.21;70.80;100015.09;8319071;28;20049;-84
2022/08/08 01:24:32;;;;;;;4.40;2.00;;;;;;;13.11;71.12;100025.03;8326326;28;20079;-84
2022/08/08 01:28:51;;;;;;;2.63;1.70;;;;;;;13.05;71.51;100012.69;8342868;28;20050;-84
2022/08/08 01:33:30;;;;;;;3.25;1.60;;;;;;;12.97;71.74;100016.09;8385019;28;20047;-84
2022/08/08 01:37:59;;;;;;;2.13;1.58;;;;;;;12.89;71.95;100008.66;8416388;28;20062;-84
2022/08/08 01:42:24;;;;;;;3.95;1.90;;;;;;;12.82;72.42;100019.09;8421751;28;20439;-83
2022/08/08 01:46:37;;;;;;;4.45;1.80;;;;;;;12.74;72.79;100010.88;8473686;27;20620;-84
2022/08/08 01:51:13;;;;;;;4.07;2.05;;;;;;;12.70;73.19;100016.09;8487937;27;20051;-84
2022/08/08 01:55:29;;;;;;;4.55;1.77;;;;;;;12.63;73.66;100010.28;8467962;27;20566;-84
2022/08/08 02:00:23;;;;;;;4.82;1.75;;;;;;;12.54;73.96;100012.84;8475659;27;20047;-84
2022/08/08 02:04:33;;;;;;;4.25;2.35;;;;;;;12.48;73.86;100007.81;8389280;28;20082;-84
2022/08/08 02:08:43;;;;;;;2.00;1.73;;;;;;;12.40;74.51;100005.81;8373378;28;20127;-84
2022/08/08 02:12:59;;;;;;;2.90;1.75;;;;;;;12.36;74.66;100004.81;8367888;28;20053;-83
2022/08/08 02:17:06;;;;;;;3.63;1.70;;;;;;;12.30;75.07;100000.59;8379951;28;20032;-84
2022/08/08 02:26:00;;;;;;;2.60;2.00;;;;;;;12.15;75.15;100015.19;8383602;28;20063;-85
2022/08/08 02:30:04;;;;;;;5.28;1.67;;;;;;;12.10;75.15;100007.97;8313514;28;20303;-83
2022/08/08 02:34:07;;;;;;;3.00;1.83;;;;;;;12.02;75.46;100014.06;8312360;28;20046;-83
2022/08/08 02:38:26;;;;;;;3.60;1.80;;;;;;;11.98;75.42;100021.16;8324885;28;20045;-85
2022/08/08 02:42:42;;;;;;;4.47;2.00;;;;;;;11.92;75.47;100016.13;8381394;28;20063;-84
2022/08/08 02:47:15;;;;;;;6.22;1.77;;;;;;;11.88;75.72;100032.16;8371039;28;20049;-83
2022/08/08 02:51:38;;;;;;;3.58;1.92;;;;;;;11.84;75.76;100029.22;8374017;28;20558;-85
2022/08/08 02:56:08;;;;;;;4.55;2.40;;;;;;;11.78;76.02;100032.31;8370623;28;20653;-84
2022/08/08 03:00:19;;;;;;;3.25;1.90;;;;;;;11.72;75.88;100041.56;8375633;27;20039;-84
2022/08/08 03:05:02;;;;;;;3.38;1.92;;;;;;;11.65;76.20;100038.41;8488140;28;20043;-84
2022/08/08 03:09:36;;;;;;;4.82;2.00;;;;;;;11.55;76.65;100033.16;8489345;28;20043;-84
2022/08/08 03:14:04;;;;;;;2.35;1.58;;;;;;;11.51;76.89;100032.13;8488066;28;20524;-84
2022/08/08 03:18:17;;;;;;;3.10;2.15;;;;;;;11.44;76.58;100044.13;8375941;28;20052;-84
2022/08/08 03:22:17;;;;;;;4.57;2.03;;;;;;;11.36;77.09;100047.50;8384473;28;20136;-85
2022/08/08 03:26:25;;;;;;;5.47;2.17;;;;;;;11.34;77.52;100052.38;8377702;28;20160;-84
2022/08/08 03:30:26;;;;;;;5.90;1.85;;;;;;;11.34;77.39;100049.66;8355386;28;20044;-83
2022/08/08 03:34:27;;;;;;;4.30;2.15;;;;;;;11.34;77.23;100055.06;8392711;28;20052;-84
2022/08/08 03:38:28;;;;;;;6.50;1.88;;;;;;;11.32;77.22;100054.53;8296735;28;20398;-85
2022/08/08 03:42:30;;;;;;;5.05;2.00;;;;;;;11.26;77.54;100047.59;8296465;28;20050;-85
2022/08/08 03:46:46;;;;;;;3.78;1.65;;;;;;;11.25;77.64;100056.81;8307187;28;20069;-83
2022/08/08 03:50:48;;;;;;;2.42;1.95;;;;;;;11.25;77.65;100059.53;8304023;28;20520;-85
2022/08/08 03:54:49;;;;;;;8.45;2.03;;;;;;;11.22;77.65;100051.97;8359501;28;20064;-85
2022/08/08 03:58:52;;;;;;;4.47;2.15;;;;;;;11.20;77.98;100054.19;8400974;28;20135;-85
2022/08/08 04:03:04;;;;;;;5.13;2.30;;;;;;;11.17;78.17;100054.75;8363763;28;20088;-85
2022/08/08 04:07:05;;;;;;;4.60;1.98;;;;;;;11.14;78.18;100055.34;8362566;28;20053;-85
2022/08/08 04:11:06;;;;;;;13.90;4.25;;;;;;;11.17;78.35;100053.94;8370772;28;20051;-82
2022/08/08 04:15:08;;;;;;;11.32;6.35;;;;;;;11.19;78.50;100052.56;8389384;28;20142;-85
2022/08/08 04:19:09;;;;;;;12.05;6.15;;;;;;;11.24;78.09;100055.22;8410382;28;20037;-84
2022/08/08 04:23:10;;;;;;;12.27;7.18;;;;;;;11.31;78.34;100055.66;8382534;28;20052;-85
2022/08/08 04:27:11;;;;;;;10.63;5.97;;;;;;;11.39;78.10;100063.13;8389678;28;20135;-84
2022/08/08 04:31:12;;;;;;;10.27;5.10;;;;;;;11.44;78.12;100067.66;8419000;28;20045;-84
2022/08/08 04:48:15;;;;;;;7.80;3.78;;;;;;;11.99;83.83;100071.50;8411431;27;1428775;-76
2022/08/08 04:52:16;;;;;;;6.07;3.70;;;;;;;12.06;82.73;100071.91;8439936;28;20389;-76
2022/08/08 04:56:17;;;;;;;6.78;3.80;;;;;;;12.21;82.24;100079.78;8426529;28;20044;-76
2022/08/08 05:00:18;;;;;;;4.93;3.58;;;;;;;12.36;81.77;100091.50;8414511;28;20048;-76
2022/08/08 05:04:19;;;;;;;8.35;3.30;;;;;;;12.50;81.59;100086.91;8438888;28;20047;-76
2022/08/08 05:08:20;;;;;;;8.60;3.17;;;;;;;12.66;81.69;100094.47;8418730;28;20613;-76
2022/08/08 05:12:21;;;;;;;5.15;2.65;;;;;;;12.79;82.41;100090.19;8433092;28;20052;-76
2022/08/08 05:16:22;;;;;;;4.57;3.13;;;;;;;12.89;82.88;100095.44;8398646;28;20086;-76
2022/08/08 05:20:23;;;;;;;7.75;3.58;;;;;;;12.98;82.15;100088.19;8434399;28;20126;-77
2022/08/08 05:24:25;;;;;;;4.88;3.00;;;;;;;13.09;81.90;100094.22;8435028;28;20044;-76
2022/08/08 05:28:26;;;;;;;4.50;2.60;;;;;;;13.23;81.56;100094.25;8427597;28;20527;-76
2022/08/08 05:32:28;;;;;;;3.70;2.55;;;;;;;13.38;81.03;100091.22;8433092;28;20048;-76
2022/08/08 05:36:30;;;;;;;4.47;2.63;;;;;;;13.59;80.95;100097.03;8401863;28;20044;-77
2022/08/08 05:40:33;;;;;;;4.47;2.30;;;;;;;13.74;80.70;100100.22;8424298;28;20083;-77
2022/08/08 05:44:38;;;;;;;4.80;2.30;;;;;;;13.90;81.07;100104.22;8437687;28;20051;-76
2022/08/08 05:48:39;;;;;;;4.30;1.90;;;;;;;14.08;80.70;100109.75;8367394;28;20048;-77
2022/08/08 05:52:40;;;;;;;3.80;1.63;;;;;;;14.29;79.66;100110.88;8390460;28;20051;-76
2022/08/08 05:56:43;;;;;;;4.00;1.58;;;;;;;14.57;77.73;100117.03;8380865;28;20048;-76
2022/08/08 06:00:44;;;;;;;5.78;1.30;;;;;;;14.76;76.51;100120.34;8375093;28;20080;-76
2022/08/08 06:04:49;;;;;;;4.50;1.60;;;;;;;14.97;75.19;100120.59;8374826;28;20037;-76
2022/08/08 06:08:51;;;;;;;3.15;1.55;;;;;;;15.14;74.50;100129.66;8369238;28;20052;-76
2022/08/08 06:12:52;;;;;;;3.60;1.58;;;;;;;15.28;74.33;100137.69;8344699;28;20041;-76
2022/08/08 06:16:56;;;;;;;3.33;1.58;;;;;;;15.39;73.58;100139.00;8361916;28;20045;-76
2022/08/08 06:20:59;;;;;;;3.78;1.35;;;;;;;15.58;72.09;100142.31;8384792;28;20493;-76
2022/08/08 06:24:59;;;;;;;2.33;1.40;;;;;;;15.78;71.47;100143.63;8332446;28;20052;-76
2022/08/08 06:29:04;;;;;;;3.55;1.48;;;;;;;15.90;70.34;100143.81;8377394;28;20080;-76
2022/08/08 06:33:05;;;;;;;2.88;1.30;;;;;;;16.06;69.48;100141.44;8378818;28;20074;-76
2022/08/08 06:37:12;;;;;;;3.75;1.55;;;;;;;16.17;69.14;100142.72;8380249;28;20101;-77
2022/08/08 06:41:16;;;;;;;6.57;1.50;;;;;;;16.37;68.21;100146.72;8386077;28;20056;-76
2022/08/08 06:45:18;;;;;;;3.95;1.60;;;;;;;16.56;67.75;100138.19;8361812;28;20076;-76
2022/08/08 06:49:19;;;;;;;3.92;1.50;;;;;;;16.69;66.93;100137.25;8357378;28;20044;-76
2022/08/08 06:53:21;;;;;;;3.33;1.50;;;;;;;16.79;66.72;100143.16;8383365;28;20045;-76
2022/08/08 06:57:23;;;;;;;4.43;1.52;;;;;;;16.89;66.02;100147.47;8356000;28;20037;-76
2022/08/08 07:01:26;;;;;;;4.20;1.70;;;;;;;17.04;64.69;100143.41;8379657;28;20044;-76
2022/08/08 07:05:30;;;;;;;3.58;1.70;;;;;;;17.15;64.61;100140.00;8385804;28;20041;-76
2022/08/08 07:09:53;;;;;;;5.07;1.65;;;;;;;17.31;62.85;100138.31;8372624;28;20048;-77
2022/08/08 07:13:59;;;;;;;3.65;1.52;;;;;;;17.42;62.38;100137.94;8362348;28;20049;-77
2022/08/08 07:18:06;;;;;;;4.90;1.60;;;;;;;17.49;62.40;100143.72;8378431;28;20048;-76
2022/08/08 07:22:08;;;;;;;2.03;1.25;;;;;;;17.61;61.37;100141.09;8350346;28;20045;-77
2022/08/08 07:26:10;;;;;;;2.88;1.55;;;;;;;17.74;60.86;100142.78;8381414;28;20475;-76
2022/08/08 07:30:12;;;;;;;1.92;1.13;;;;;;;17.87;60.14;100133.53;8377684;28;20048;-76
2022/08/08 07:34:15;;;;;;;3.55;1.30;;;;;;;17.98;59.61;100140.19;8354279;28;20497;-76
2022/08/08 07:38:17;;;;;;;2.65;1.20;;;;;;;18.06;58.79;100142.09;8334090;28;20135;-74
2022/08/08 07:42:19;;;;;;;1.50;1.15;;;;;;;18.18;57.58;100149.56;8373956;28;20455;-77
2022/08/08 07:46:20;;;;;;;2.95;1.20;;;;;;;18.28;57.48;100142.88;8344045;28;20520;-77
2022/08/08 07:50:21;;;;;;;2.15;1.25;;;;;;;18.35;56.96;100148.59;8377705;28;20485;-77
2022/08/08 07:54:25;;;;;;;6.20;1.08;;;;;;;18.49;57.40;100138.19;8376041;28;20075;-76
2022/08/08 07:58:31;;;;;;;6.13;1.50;;;;;;;18.59;56.69;100147.94;8367432;28;20103;-75
2022/08/08 08:02:42;;;;;;;2.03;1.17;;;;;;;18.66;56.19;100149.00;8393243;28;20036;-76
2022/08/08 08:06:44;;;;;;;2.63;1.20;;;;;;;18.78;55.50;100150.94;8380221;28;20049;-75
2022/08/08 08:10:55;;;;;;;2.05;1.10;;;;;;;18.91;55.35;100145.19;8367575;28;20110;-75
2022/08/08 08:15:05;;;;;;;3.92;1.40;;;;;;;18.99;54.64;100152.50;8386088;28;20496;-75
2022/08/08 08:19:11;;;;;;;3.55;1.42;;;;;;;19.06;55.43;100145.66;8393549;28;20041;-76
2022/08/08 08:23:12;;;;;;;3.50;1.30;;;;;;;19.21;54.81;100147.72;8379139;28;20051;-76
2022/08/08 08:27:12;;;;;;;2.75;1.50;;;;;;;19.32;54.76;100159.84;8379828;28;20041;-77
2022/08/08 08:31:14;;;;;;;3.80;1.90;;;;;;;19.43;55.51;100150.03;8380234;28;20045;-76
2022/08/08 08:35:15;;;;;;;6.10;2.25;;;;;;;19.60;54.74;100143.56;8374143;28;20045;-76
2022/08/08 08:39:16;;;;;;;3.83;1.70;;;;;;;19.69;54.73;100150.50;8390087;28;20119;-76
2022/08/08 08:43:18;;;;;;;3.60;1.30;;;;;;;19.83;54.86;100146.63;8381384;28;20045;-76
2022/08/08 08:47:19;;;;;;;4.03;1.30;;;;;;;19.96;53.59;100153.66;8382690;28;20056;-76
2022/08/08 08:51:22;;;;;;;4.78;1.70;;;;;;;19.79;53.64;100147.31;8367737;28;20041;-76
2022/08/08 08:55:24;;;;;;;3.45;1.45;;;;;;;19.97;53.61;100141.56;8367637;28;20094;-76
2022/08/08 08:59:27;;;;;;;3.08;1.27;;;;;;;20.08;53.43;100148.97;8367976;28;20049;-76
2022/08/08 09:03:32;;;;;;;4.40;1.40;;;;;;;19.88;53.63;100143.66;8362347;28;20049;-76
2022/08/08 09:07:34;;;;;;;6.35;1.70;;;;;;;20.03;52.79;100151.94;8338504;28;20037;-76
2022/08/08 09:11:37;;;;;;;2.42;1.27;;;;;;;20.37;52.73;100156.09;8366658;28;20048;-76
2022/08/08 09:15:38;;;;;;;5.32;1.30;;;;;;;20.54;51.45;100161.28;8349255;28;20497;-76
2022/08/08 09:19:40;;;;;;;5.45;1.55;;;;;;;20.75;51.26;100154.78;8379885;28;20158;-76
2022/08/08 09:23:42;;;;;;;4.00;1.60;;;;;;;20.87;49.32;100157.47;8389685;28;20048;-77
2022/08/08 09:27:43;;;;;;;7.38;1.63;;;;;;;20.91;49.41;100158.38;8362312;28;20049;-76
2022/08/08 09:32:04;;;;;;;2.80;1.30;;;;;;;20.63;50.62;100164.69;8350941;28;20052;-76
2022/08/08 09:36:09;;;;;;;4.90;1.40;;;;;;;20.63;51.51;100159.19;8371837;28;20073;-77
2022/08/08 09:40:18;;;;;;;3.67;1.40;;;;;;;20.72;51.61;100161.00;8377618;28;20052;-76
2022/08/08 09:44:23;;;;;;;3.88;1.50;;;;;;;20.59;51.16;100169.28;8335959;28;20123;-76
2022/08/08 09:48:29;;;;;;;7.25;1.40;;;;;;;20.69;50.97;100150.69;8346947;28;20666;-76
2022/08/08 09:52:32;;;;;;;9.18;1.40;;;;;;;21.08;48.81;100152.53;8397686;28;20048;-76
2022/08/08 09:56:36;;;;;;;3.78;1.15;;;;;;;21.65;48.57;100151.22;8377384;28;20054;-76
2022/08/08 10:00:39;;;;;;;1.55;1.08;;;;;;;22.04;47.12;100152.94;8392930;28;20041;-76
2022/08/08 10:04:41;;;;;;;8.43;1.10;;;;;;;22.19;46.42;100157.59;8289012;28;20054;-76
2022/08/08 10:08:47;;;;;;;3.50;1.10;;;;;;;22.25;46.22;100156.16;8247861;28;20497;-76
2022/08/08 10:12:51;;;;;;;7.40;1.48;;;;;;;22.02;46.58;100146.97;8274305;28;20068;-77
2022/08/08 10:16:54;;;;;;;3.42;1.30;;;;;;;22.01;46.73;100150.88;8289161;28;20512;-77
2022/08/08 10:21:06;;;;;;;3.15;1.15;;;;;;;21.89;47.45;100153.72;8279421;28;20136;-76
2022/08/08 10:25:09;;;;;;;3.70;1.30;;;;;;;21.92;47.29;100158.53;8291371;28;20096;-76
2022/08/08 10:29:11;;;;;;;4.63;1.40;;;;;;;21.57;47.55;100157.72;8291982;28;20060;-76
2022/08/08 10:33:12;;;;;;;3.83;1.35;;;;;;;21.35;48.23;100162.69;8301214;28;20110;-76
2022/08/08 10:37:21;;;;;;;3.58;1.75;;;;;;;21.59;47.15;100149.88;8369326;28;20135;-76
2022/08/08 10:41:24;;;;;;;4.55;1.30;;;;;;;22.09;45.80;100141.66;8390773;28;20041;-76
2022/08/08 10:45:26;;;;;;;4.50;1.20;;;;;;;21.85;45.83;100136.34;8325527;28;20140;-76
2022/08/08 10:49:27;;;;;;;1.50;1.10;;;;;;;21.49;45.78;100146.53;8376155;28;20507;-76
2022/08/08 10:53:35;;;;;;;2.30;1.17;;;;;;;21.26;45.83;100140.06;8367904;28;20128;-76
2022/08/08 10:57:47;;;;;;;4.30;1.25;;;;;;;21.74;45.53;100140.81;8384404;28;20045;-76
2022/08/08 11:01:49;;;;;;;3.17;1.42;;;;;;;22.52;45.02;100134.25;8371159;28;20452;-76
2022/08/08 11:05:50;;;;;;;2.50;1.13;;;;;;;22.61;44.22;100145.84;8375667;28;20042;-76
2022/08/08 11:09:51;;;;;;;3.20;1.30;;;;;;;22.71;44.17;100140.56;8387880;28;20051;-75
2022/08/08 11:13:54;;;;;;;3.03;1.48;;;;;;;22.43;44.46;100133.66;8385157;28;20041;-75
2022/08/08 11:17:55;;;;;;;4.85;1.40;;;;;;;22.26;45.84;100135.69;8384999;28;20029;-76
2022/08/08 11:21:56;;;;;;;3.63;1.30;;;;;;;22.51;46.09;100135.41;8345177;28;20053;-76
2022/08/08 11:25:58;;;;;;;7.35;1.52;;;;;;;23.27;45.53;100139.16;8344900;28;20045;-76
2022/08/08 11:30:00;;;;;;;2.53;1.10;;;;;;;23.63;43.28;100127.59;8374820;28;20045;-76
2022/08/08 11:34:02;;;;;;;3.28;1.40;;;;;;;23.28;43.07;100129.75;8357797;28;20406;-75
2022/08/08 11:38:03;;;;;;;3.85;1.40;;;;;;;22.76;43.08;100136.72;8377260;28;20041;-76
2022/08/08 11:42:05;;;;;;;2.53;1.40;;;;;;;22.56;43.21;100132.38;8351881;28;20045;-76
2022/08/08 11:46:07;;;;;;;5.68;1.45;;;;;;;22.25;44.05;100123.13;8350954;28;20110;-76
2022/08/08 11:50:13;;;;;;;5.30;1.45;;;;;;;22.69;44.08;100120.03;8368843;28;20044;-76
2022/08/08 11:54:13;;;;;;;2.50;1.52;;;;;;;23.12;44.00;100122.41;8364329;28;20052;-77
2022/08/08 11:58:14;;;;;;;6.97;1.60;;;;;;;23.41;43.38;100117.38;8365859;28;20052;-76
2022/08/08 12:02:16;;;;;;;2.95;1.70;;;;;;;23.68;42.36;100116.25;8371013;28;20056;-76
2022/08/08 12:06:18;;;;;;;2.35;1.60;;;;;;;24.07;41.94;100115.97;8365727;28;20143;-76
2022/08/08 12:10:21;;;;;;;5.75;2.17;;;;;;;24.27;40.71;100120.22;8361786;28;20776;-76
2022/08/08 12:14:25;;;;;;;6.68;2.30;;;;;;;24.30;40.63;100130.50;8368743;28;20048;-76
2022/08/08 12:18:26;;;;;;;2.28;1.50;;;;;;;23.69;40.95;100122.56;8367625;28;20624;-76
2022/08/08 12:22:30;;;;;;;3.58;1.77;;;;;;;23.91;41.42;100119.69;8367801;28;20072;-76
2022/08/08 12:26:41;;;;;;;5.05;1.80;;;;;;;23.57;41.57;100123.56;8362733;28;20110;-76
2022/08/08 12:30:43;;;;;;;3.25;1.77;;;;;;;23.23;41.48;100121.78;8366096;28;20056;-75
2022/08/08 12:35:05;;;;;;;3.55;1.80;;;;;;;23.06;41.96;100123.88;8373387;28;20045;-76
2022/08/08 12:39:07;;;;;;;3.00;1.88;;;;;;;23.35;41.79;100118.84;8350072;28;20056;-76
2022/08/08 12:43:09;;;;;;;3.83;1.88;;;;;;;23.60;41.21;100117.28;8356849;28;20061;-76
2022/08/08 12:47:10;;;;;;;5.30;2.13;;;;;;;23.69;41.79;100111.53;8371743;28;20063;-76
2022/08/08 12:51:18;;;;;;;6.22;2.30;;;;;;;23.51;41.93;100122.28;8365155;28;20056;-76
2022/08/08 12:55:19;;;;;;;4.80;2.17;;;;;;;23.38;42.52;100123.59;8354923;28;20122;-76
2022/08/08 12:59:26;;;;;;;4.55;2.10;;;;;;;23.46;41.84;100111.56;8371766;28;20049;-75
2022/08/08 13:03:28;;;;;;;5.68;1.92;;;;;;;23.35;42.79;100107.81;8368610;28;20451;-75
2022/08/08 13:07:36;;;;;;;7.10;2.20;;;;;;;23.63;42.33;100097.25;8367512;28;20048;-75
2022/08/08 13:11:40;;;;;;;7.20;2.00;;;;;;;24.17;41.02;100098.75;8371647;28;20057;-76
2022/08/08 13:15:41;;;;;;;4.30;2.10;;;;;;;24.52;40.48;100095.63;8304422;28;20048;-75
2022/08/08 13:19:45;;;;;;;3.70;2.17;;;;;;;24.43;40.60;100095.91;8375942;28;20044;-75
2022/08/08 13:23:48;;;;;;;10.02;2.17;;;;;;;23.97;40.89;100098.91;8369572;28;20037;-75
2022/08/08 13:27:53;;;;;;;2.33;1.80;;;;;;;24.16;40.14;100097.97;8377396;28;20056;-75
2022/08/08 13:31:55;;;;;;;4.93;2.40;;;;;;;24.19;39.94;100088.16;8379592;23;20059;-79
2022/08/08 13:35:56;;;;;;;4.93;2.17;;;;;;;25.42;38.76;100080.28;8361241;28;20115;-79
2022/08/08 13:40:01;;;;;;;4.07;1.70;;;;;;;26.31;37.07;100081.56;8311054;28;20049;-80
2022/08/08 13:44:02;;;;;;;2.50;1.55;;;;;;;28.00;34.40;100082.75;8294305;28;20048;-79
2022/08/08 13:48:11;;;;;;;5.38;1.58;;;;;;;29.51;31.25;100082.19;8274927;28;20046;-80
2022/08/08 13:52:15;;;;;;;2.58;1.35;;;;;;;30.70;30.31;100077.56;8293485;28;20108;-80
2022/08/08 13:56:28;;;;;;;4.00;1.40;;;;;;;31.83;29.35;100075.66;8280008;28;20050;-80
2022/08/08 14:00:38;;;;;;;7.90;1.63;;;;;;;33.08;28.78;100080.84;8293110;28;20054;-80
2022/08/08 14:04:50;;;;;;;2.88;1.38;;;;;;;33.72;26.69;100084.81;8279290;28;20060;-81
2022/08/08 14:08:51;;;;;;;3.83;1.27;;;;;;;32.44;27.48;100080.75;8273042;28;20378;-81
2022/08/08 14:12:52;;;;;;;4.00;1.15;;;;;;;29.05;30.84;100088.16;8290744;28;20038;-80
2022/08/08 14:16:53;;;;;;;1.65;0.93;;;;;;;27.04;33.86;100090.44;8295771;28;20049;-81
2022/08/08 14:21:02;;;;;;;1.80;1.05;;;;;;;27.30;34.48;100092.81;8315035;28;20041;-79
2022/08/08 14:25:07;;;;;;;1.38;1.20;;;;;;;28.91;32.81;100086.28;8313126;28;20116;-80
2022/08/08 14:29:19;;;;;;;3.08;1.33;;;;;;;31.62;28.92;100087.22;8363428;28;20049;-79
2022/08/08 14:33:29;;;;;;;5.53;1.20;;;;;;;32.78;26.88;100088.81;8287280;28;20042;-80
2022/08/08 14:37:30;;;;;;;1.63;1.13;;;;;;;33.97;25.73;100100.13;8235493;28;20050;-80
2022/08/08 14:41:42;;;;;;;1.95;1.20;;;;;;;34.38;24.58;100102.94;8290453;28;20053;-81
2022/08/08 14:45:45;;;;;;;1.88;1.00;;;;;;;32.04;26.79;100094.78;8288305;28;20493;-80
2022/08/08 14:49:46;;;;;;;1.83;1.08;;;;;;;30.17;28.76;100093.00;8289405;28;20076;-80
2022/08/08 14:53:47;;;;;;;4.28;1.20;;;;;;;31.62;26.39;100092.81;8290749;28;20060;-80
2022/08/08 14:57:48;;;;;;;3.95;1.20;;;;;;;31.68;27.21;100099.47;8292422;28;20071;-80
2022/08/08 15:01:50;;;;;;;1.63;0.90;;;;;;;33.25;25.50;100100.47;8289973;28;20050;-80
2022/08/08 15:05:51;;;;;;;2.53;1.10;;;;;;;34.69;23.40;100089.97;8277506;28;20144;-80
2022/08/08 15:09:52;;;;;;;6.75;1.00;;;;;;;35.54;23.22;100098.38;8283001;28;20050;-81
2022/08/08 15:13:53;;;;;;;2.13;1.00;;;;;;;35.67;22.75;100094.78;8293298;28;20038;-81
2022/08/08 15:17:54;;;;;;;2.15;1.00;;;;;;;35.68;23.00;100096.34;8279012;28;20046;-80
2022/08/08 15:21:55;;;;;;;4.15;1.23;;;;;;;35.65;22.89;100097.22;8270033;28;20136;-81
2022/08/08 15:25:58;;;;;;;3.13;1.10;;;;;;;34.04;24.44;100094.34;8273849;28;20612;-79
2022/08/08 15:29:59;;;;;;;1.40;1.00;;;;;;;32.68;26.19;100087.81;8272491;28;20089;-79
2022/08/08 15:34:00;;;;;;;3.08;1.20;;;;;;;31.19;26.83;100092.75;8348036;28;20471;-80
2022/08/08 15:38:02;;;;;;;3.38;1.00;;;;;;;29.71;28.58;100091.53;8325952;28;20103;-80
2022/08/08 15:42:05;;;;;;;2.30;1.00;;;;;;;28.54;29.97;100092.47;8361906;28;20065;-80
2022/08/08 15:46:06;;;;;;;2.83;1.00;;;;;;;27.63;31.13;100088.03;8347361;28;20052;-80
2022/08/08 15:50:07;;;;;;;3.17;1.23;;;;;;;26.90;31.74;100090.44;8356207;28;20049;-78
2022/08/08 15:54:08;;;;;;;3.75;0.80;;;;;;;26.56;32.45;100083.59;8337487;28;20065;-79
2022/08/08 15:58:09;;;;;;;3.75;0.90;;;;;;;26.22;32.88;100083.94;8338867;28;20049;-80
2022/08/08 16:02:11;;;;;;;1.60;0.93;;;;;;;25.96;32.78;100075.88;8351109;28;20136;-79
2022/08/08 16:06:12;;;;;;;3.85;0.90;;;;;;;25.61;33.62;100082.00;8331296;28;20060;-79
2022/08/08 16:10:13;;;;;;;2.65;1.02;;;;;;;25.46;33.68;100075.56;8295775;28;20140;-80
2022/08/08 16:14:14;;;;;;;1.73;1.20;;;;;;;25.26;33.99;100082.53;8341716;28;20054;-80
2022/08/08 16:18:15;;;;;;;2.63;1.10;;;;;;;24.99;34.37;100089.41;8350458;28;20042;-80
2022/08/08 16:22:16;;;;;;;2.60;0.90;;;;;;;24.78;34.41;100079.72;8352371;28;20439;-79
2022/08/08 16:26:17;;;;;;;6.28;1.23;;;;;;;24.60;34.86;100078.75;8336694;28;20084;-80
2022/08/08 16:30:18;;;;;;;2.85;1.55;;;;;;;24.43;35.44;100084.88;8335672;28;20090;-80
2022/08/08 16:34:20;;;;;;;1.70;0.93;;;;;;;24.28;36.35;100085.88;8313361;28;20060;-78
2022/08/08 16:38:25;;;;;;;1.40;1.00;;;;;;;24.09;37.01;100080.53;8298613;28;20041;-78
2022/08/08 16:42:26;;;;;;;3.72;1.20;;;;;;;23.95;37.37;100076.41;8340077;28;20076;-80
2022/08/08 16:46:28;;;;;;;3.25;1.20;;;;;;;23.77;37.26;100075.38;8358564;28;20040;-81
2022/08/08 16:50:29;;;;;;;3.75;1.15;;;;;;;23.55;37.75;100079.00;8334314;28;20045;-81
2022/08/08 16:54:32;;;;;;;2.38;1.25;;;;;;;23.39;38.71;100075.59;8349990;28;20060;-80
2022/08/08 16:58:35;;;;;;;3.75;1.20;;;;;;;23.24;39.30;100073.78;8277954;28;20057;-79
2022/08/08 17:02:37;;;;;;;5.13;1.50;;;;;;;23.07;39.42;100073.13;8332296;28;20136;-79
2022/08/08 17:06:39;;;;;;;8.23;2.05;;;;;;;22.90;40.10;100081.88;8339937;28;20050;-79
2022/08/08 17:10:41;;;;;;;1.52;1.02;;;;;;;22.76;40.33;100076.13;8357949;28;20060;-79
2022/08/08 17:14:43;;;;;;;1.45;1.20;;;;;;;22.63;40.74;100083.72;8339083;28;20476;-79
2022/08/08 17:18:47;;;;;;;1.63;1.10;;;;;;;22.42;42.06;100085.31;8350478;28;20053;-79
2022/08/08 17:22:50;;;;;;;3.40;1.25;;;;;;;22.19;42.77;100080.53;8290998;28;20413;-80
2022/08/08 17:26:53;;;;;;;4.07;1.20;;;;;;;22.00;43.70;100083.28;8338558;28;20041;-79
2022/08/08 17:30:55;;;;;;;2.97;1.30;;;;;;;21.80;44.56;100085.19;8275637;28;20060;-80
2022/08/08 17:34:56;;;;;;;1.90;1.13;;;;;;;21.63;45.13;100082.03;8357008;28;20037;-80
2022/08/08 17:38:58;;;;;;;4.18;1.55;;;;;;;21.48;45.84;100095.47;8360656;28;20504;-80
2022/08/08 17:42:59;;;;;;;2.78;1.25;;;;;;;21.29;47.01;100098.16;8362425;28;20049;-81
2022/08/08 17:47:00;;;;;;;3.78;1.25;;;;;;;21.11;47.89;100090.59;8331630;28;20057;-80
2022/08/08 17:51:01;;;;;;;5.85;1.30;;;;;;;20.91;49.23;100104.25;8315725;28;20041;-80
2022/08/08 17:55:03;;;;;;;2.47;1.40;;;;;;;20.70;50.35;100108.38;8366917;28;20045;-80
2022/08/08 17:59:04;;;;;;;2.38;1.33;;;;;;;20.51;51.27;100107.13;8298769;28;20071;-80
2022/08/08 18:03:05;;;;;;;6.25;1.20;;;;;;;20.32;51.95;100106.16;8333712;28;20049;-80
2022/08/08 18:07:08;;;;;;;4.32;1.40;;;;;;;20.11;52.93;100109.06;8333551;28;20500;-80
2022/08/08 18:11:14;;;;;;;3.40;1.70;;;;;;;19.93;53.92;100107.78;8333197;28;20057;-80
2022/08/08 18:15:16;;;;;;;4.35;2.50;;;;;;;19.74;54.29;100120.13;8344584;28;20135;-80
2022/08/08 18:19:20;;;;;;;3.80;2.05;;;;;;;19.58;55.04;100121.97;8346697;28;20045;-80
2022/08/08 18:23:21;;;;;;;4.05;1.88;;;;;;;19.41;55.66;100122.97;8347681;28;20121;-79
2022/08/08 18:27:21;;;;;;;8.65;2.03;;;;;;;19.23;56.45;100129.03;8336444;28;20072;-80
2022/08/08 18:31:23;;;;;;;7.65;2.40;;;;;;;19.05;57.47;100139.38;8343772;28;20041;-80
2022/08/08 18:35:23;;;;;;;6.00;2.85;;;;;;;18.88;58.51;100137.63;8310894;28;20084;-79
2022/08/08 18:39:24;;;;;;;8.73;2.25;;;;;;;18.76;58.99;100143.09;8328148;28;20080;-79
2022/08/08 18:43:25;;;;;;;4.78;1.80;;;;;;;18.61;59.37;100148.41;8310913;28;20054;-79
2022/08/08 18:47:27;;;;;;;7.50;2.25;;;;;;;18.45;60.14;100153.69;8349053;28;20041;-80
2022/08/08 18:51:28;;;;;;;5.20;1.90;;;;;;;18.30;60.83;100151.53;8360352;28;20053;-79
2022/08/08 18:55:29;;;;;;;7.00;1.90;;;;;;;18.17;61.31;100153.41;8361107;28;20051;-80
2022/08/08 18:59:31;;;;;;;3.67;1.60;;;;;;;18.05;61.85;100165.06;8344538;28;20485;-79
2022/08/08 19:03:34;;;;;;;4.60;2.03;;;;;;;17.88;62.01;100162.44;8348346;28;20044;-79
2022/08/08 19:07:38;;;;;;;9.82;2.60;;;;;;;17.77;62.24;100155.78;8277739;28;20075;-79
2022/08/08 19:11:40;;;;;;;7.30;2.30;;;;;;;17.70;62.52;100163.72;8359101;28;20491;-79
2022/08/08 19:15:43;;;;;;;5.82;2.70;;;;;;;17.58;63.22;100158.13;8324206;28;20420;-80
2022/08/08 19:19:46;;;;;;;6.10;2.28;;;;;;;17.47;63.26;100154.16;8276529;28;20067;-79